createdAt,value
2018-01-06T00:02:06.006Z,91.80
2018-01-06T00:04:34.173Z,91.80
2018-01-06T00:07:02.373Z,91.80
2018-01-06T00:09:31.305Z,91.90
2018-01-06T00:11:59.458Z,91.90
2018-01-06T00:14:27.650Z,91.90
2018-01-06T00:16:55.935Z,91.90
2018-01-06T00:19:24.124Z,91.90
2018-01-06T00:21:52.290Z,92.00
2018-01-06T00:24:20.467Z,92.00
2018-01-06T00:26:48.644Z,92.00
2018-01-06T00:29:16.847Z,92.10
2018-01-06T00:31:45.010Z,92.10
2018-01-06T00:34:13.177Z,92.10
2018-01-06T00:36:41.339Z,92.00
2018-01-06T00:39:09.506Z,92.00
2018-01-06T00:41:37.686Z,92.00
2018-01-06T00:44:05.872Z,92.10
2018-01-06T00:46:34.036Z,92.10
2018-01-06T00:49:02.210Z,92.10
2018-01-06T00:51:30.415Z,92.10
2018-01-06T00:53:58.594Z,92.10
2018-01-06T00:56:26.783Z,92.10
2018-01-06T00:58:55.708Z,92.00
2018-01-06T01:01:23.891Z,92.00
2018-01-06T01:03:52.061Z,92.00
2018-01-06T01:06:20.229Z,91.90
2018-01-06T01:08:48.391Z,92.00
2018-01-06T01:11:16.567Z,91.90
2018-01-06T01:13:44.916Z,92.00
2018-01-06T01:16:13.119Z,92.00
2018-01-06T01:18:41.297Z,92.00
2018-01-06T01:21:13.101Z,92.00
2018-01-06T01:23:41.386Z,91.90
2018-01-06T01:26:09.566Z,92.00
2018-01-06T01:28:37.769Z,92.00
2018-01-06T01:31:06.711Z,92.00
2018-01-06T01:33:34.877Z,92.00
2018-01-06T01:36:03.042Z,92.00
2018-01-06T01:38:31.206Z,92.00
2018-01-06T01:40:59.382Z,92.00
2018-01-06T01:43:27.556Z,92.10
2018-01-06T01:45:55.719Z,92.10
2018-01-06T01:48:24.675Z,92.10
2018-01-06T01:50:52.844Z,92.10
2018-01-06T01:53:21.003Z,92.10
2018-01-06T01:55:49.172Z,92.10
2018-01-06T01:58:17.364Z,92.10
2018-01-06T02:00:45.531Z,92.20
2018-01-06T02:03:13.692Z,92.10
2018-01-06T02:05:41.855Z,92.20
2018-01-06T02:08:10.033Z,92.30
2018-01-06T02:10:38.207Z,92.20
2018-01-06T02:13:06.373Z,92.30
2018-01-06T02:15:34.540Z,92.30
2018-01-06T02:18:02.699Z,92.20
2018-01-06T02:20:31.634Z,92.30
2018-01-06T02:22:59.806Z,92.30
2018-01-06T02:25:27.979Z,92.30
2018-01-06T02:27:56.142Z,92.30
2018-01-06T02:30:24.334Z,92.30
2018-01-06T02:32:52.502Z,92.30
2018-01-06T02:35:20.668Z,92.30
2018-01-06T02:37:48.842Z,92.30
2018-01-06T02:40:17.005Z,92.30
2018-01-06T02:42:45.186Z,92.30
2018-01-06T02:45:13.397Z,92.30
2018-01-06T02:47:41.566Z,92.40
2018-01-06T02:50:09.763Z,92.20
2018-01-06T02:52:37.966Z,92.20
2018-01-06T02:55:06.241Z,92.20
2018-01-06T02:57:34.413Z,92.10
2018-01-06T03:00:03.342Z,92.20
2018-01-06T03:02:31.517Z,92.10
2018-01-06T03:04:59.671Z,92.20
2018-01-06T03:07:27.856Z,92.20
2018-01-06T03:09:56.030Z,92.20
2018-01-06T03:12:24.200Z,92.20
2018-01-06T03:14:52.357Z,92.10
2018-01-06T03:17:20.555Z,92.10
2018-01-06T03:19:48.725Z,92.10
2018-01-06T03:22:16.883Z,92.10
2018-01-06T03:24:45.044Z,92.10
2018-01-06T03:27:14.006Z,92.20
2018-01-06T03:29:42.167Z,92.20
2018-01-06T03:32:10.326Z,92.20
2018-01-06T03:34:38.494Z,92.20
2018-01-06T03:37:06.674Z,92.20
2018-01-06T03:39:34.848Z,92.20
2018-01-06T03:42:03.019Z,92.00
2018-01-06T03:44:31.196Z,91.80
2018-01-06T03:46:59.351Z,91.90
2018-01-06T03:49:27.535Z,91.90
2018-01-06T03:51:55.713Z,91.80
2018-01-06T03:54:23.887Z,91.80
2018-01-06T03:56:52.057Z,91.80
2018-01-06T03:59:20.240Z,91.80
2018-01-06T04:01:48.433Z,91.70
2018-01-06T04:04:17.364Z,91.70
2018-01-06T04:06:46.386Z,91.70
2018-01-06T04:09:14.550Z,91.80
2018-01-06T04:11:42.718Z,91.80
2018-01-06T04:14:10.897Z,91.90
2018-01-06T04:16:39.063Z,91.90
2018-01-06T04:19:07.987Z,91.90
2018-01-06T04:21:36.173Z,91.90
2018-01-06T04:24:04.346Z,92.00
2018-01-06T04:26:32.514Z,92.00
2018-01-06T04:29:00.673Z,92.10
2018-01-06T04:31:28.838Z,92.10
2018-01-06T04:33:57.098Z,92.20
2018-01-06T04:36:26.038Z,92.20
2018-01-06T04:38:54.250Z,92.20
2018-01-06T04:41:22.450Z,92.30
2018-01-06T04:43:51.382Z,92.30
2018-01-06T04:46:19.542Z,92.30
2018-01-06T04:48:47.699Z,92.20
2018-01-06T04:51:15.855Z,92.10
2018-01-06T04:53:44.795Z,92.20
2018-01-06T04:56:13.722Z,92.40
2018-01-06T04:58:41.885Z,92.20
2018-01-06T05:01:10.123Z,92.30
2018-01-06T05:03:38.322Z,92.30
2018-01-06T05:06:07.254Z,92.30
2018-01-06T05:08:36.192Z,92.40
2018-01-06T05:11:04.357Z,92.30
2018-01-06T05:13:32.558Z,92.40
2018-01-06T05:16:00.725Z,92.30
2018-01-06T05:18:28.886Z,92.30
2018-01-06T05:20:57.045Z,92.30
2018-01-06T05:23:25.226Z,92.40
2018-01-06T05:25:53.394Z,92.40
2018-01-06T05:28:21.619Z,92.40
2018-01-06T05:30:49.803Z,92.50
2018-01-06T05:33:17.979Z,92.40
2018-01-06T05:35:46.161Z,92.40
2018-01-06T05:38:14.323Z,92.60
2018-01-06T05:40:42.496Z,92.50
2018-01-06T05:43:10.656Z,92.50
2018-01-06T05:45:38.876Z,92.40
2018-01-06T05:48:07.807Z,92.30
2018-01-06T05:50:35.994Z,92.20
2018-01-06T05:53:04.157Z,92.30
2018-01-06T05:55:32.325Z,92.20
2018-01-06T05:58:00.491Z,92.20
2018-01-06T06:00:28.667Z,92.10
2018-01-06T06:02:56.857Z,92.00
2018-01-06T06:05:25.015Z,92.00
2018-01-06T06:07:53.237Z,92.00
2018-01-06T06:10:21.398Z,92.10
2018-01-06T06:12:49.554Z,92.10
2018-01-06T06:15:17.721Z,92.20
2018-01-06T06:17:45.882Z,92.20
2018-01-06T06:20:14.038Z,92.20
2018-01-06T06:22:42.974Z,92.30
2018-01-06T06:25:11.138Z,92.30
2018-01-06T06:27:39.317Z,92.20
2018-01-06T06:30:07.485Z,92.20
2018-01-06T06:32:35.652Z,92.30
2018-01-06T06:35:03.843Z,92.10
2018-01-06T06:37:32.007Z,92.40
2018-01-06T06:40:00.195Z,92.00
2018-01-06T06:42:28.361Z,92.00
2018-01-06T06:44:56.523Z,92.00
2018-01-06T06:47:24.710Z,92.00
2018-01-06T06:49:52.867Z,92.00
2018-01-06T06:52:21.036Z,92.00
2018-01-06T06:54:49.206Z,91.90
2018-01-06T06:57:17.385Z,91.90
2018-01-06T06:59:45.553Z,91.80
2018-01-06T07:02:13.773Z,91.80
2018-01-06T07:04:41.949Z,91.70
2018-01-06T07:07:10.102Z,91.50
2018-01-06T07:09:38.257Z,91.40
2018-01-06T07:12:06.418Z,91.30
2018-01-06T07:14:35.346Z,91.20
2018-01-06T07:17:03.513Z,91.10
2018-01-06T07:19:31.686Z,91.20
2018-01-06T07:21:59.845Z,91.20
2018-01-06T07:24:28.007Z,91.10
2018-01-06T07:26:56.954Z,91.00
2018-01-06T07:29:25.112Z,91.30
2018-01-06T07:31:53.295Z,91.00
2018-01-06T07:34:21.463Z,91.00
2018-01-06T07:36:49.732Z,90.90
2018-01-06T07:39:17.890Z,90.90
2018-01-06T07:41:46.048Z,90.80
2018-01-06T07:44:14.966Z,90.60
2018-01-06T07:46:43.118Z,90.50
2018-01-06T07:49:11.313Z,90.60
2018-01-06T07:51:39.474Z,90.70
2018-01-06T07:54:07.638Z,90.30
2018-01-06T07:56:36.569Z,90.10
2018-01-06T07:59:04.731Z,90.00
2018-01-06T08:01:32.892Z,90.00
2018-01-06T08:04:01.050Z,89.90
2018-01-06T08:06:30.013Z,89.80
2018-01-06T08:08:58.198Z,89.70
2018-01-06T08:11:26.354Z,89.60
2018-01-06T08:13:54.505Z,89.60
2018-01-06T08:16:22.674Z,89.50
2018-01-06T08:18:50.836Z,89.60
2018-01-06T08:21:18.994Z,89.40
2018-01-06T08:23:47.164Z,89.30
2018-01-06T08:26:16.140Z,89.00
2018-01-06T08:28:45.062Z,89.40
2018-01-06T08:31:13.238Z,89.10
2018-01-06T08:33:41.432Z,89.00
2018-01-06T08:36:09.588Z,88.70
2018-01-06T08:38:37.747Z,88.60
2018-01-06T08:41:06.685Z,88.00
2018-01-06T08:43:34.843Z,88.00
2018-01-06T08:46:03.030Z,87.70
2018-01-06T08:48:31.202Z,87.50
2018-01-06T08:50:59.369Z,87.30
2018-01-06T08:53:27.529Z,87.30
2018-01-06T08:55:55.702Z,87.30
2018-01-06T08:58:23.872Z,87.20
2018-01-06T09:00:52.067Z,87.20
2018-01-06T09:03:20.258Z,87.00
2018-01-06T09:05:49.185Z,87.70
2018-01-06T09:08:18.119Z,87.80
2018-01-06T09:10:46.288Z,87.70
2018-01-06T09:13:14.446Z,86.20
2018-01-06T09:15:42.617Z,86.20
2018-01-06T09:18:11.550Z,86.40
2018-01-06T09:20:39.714Z,86.30
2018-01-06T09:23:07.861Z,85.70
2018-01-06T09:25:36.046Z,85.40
2018-01-06T09:28:04.250Z,85.10
2018-01-06T09:30:32.409Z,84.90
2018-01-06T09:33:00.569Z,86.10
2018-01-06T09:35:28.741Z,85.80
2018-01-06T09:37:56.920Z,84.20
2018-01-06T09:40:25.078Z,83.00
2018-01-06T09:42:54.029Z,83.20
2018-01-06T09:45:22.208Z,83.20
2018-01-06T09:47:50.374Z,83.10
2018-01-06T09:50:18.529Z,82.60
2018-01-06T09:52:46.693Z,81.30
2018-01-06T09:55:14.843Z,81.10
2018-01-06T09:57:43.779Z,81.20
2018-01-06T10:00:11.949Z,81.20
2018-01-06T10:02:40.110Z,81.00
2018-01-06T10:05:08.282Z,79.60
2018-01-06T10:07:36.539Z,78.50
2018-01-06T10:10:04.684Z,77.00
2018-01-06T10:12:32.875Z,75.70
2018-01-06T10:15:01.807Z,74.10
2018-01-06T10:17:29.968Z,74.10
2018-01-06T10:19:58.137Z,73.60
2018-01-06T10:22:26.323Z,73.00
2018-01-06T10:24:54.509Z,70.60
2018-01-06T10:27:22.682Z,69.00
2018-01-06T10:29:50.842Z,67.40
2018-01-06T10:32:19.020Z,66.30
2018-01-06T10:34:47.250Z,64.80
2018-01-06T10:37:15.417Z,63.80
2018-01-06T10:39:43.591Z,63.20
2018-01-06T10:42:11.767Z,59.20
2018-01-06T10:44:41.449Z,55.70
2018-01-06T10:47:09.700Z,55.60
2018-01-06T10:49:37.865Z,55.30
2018-01-06T10:52:06.142Z,54.10
2018-01-06T10:54:34.324Z,50.90
2018-01-06T10:57:02.505Z,45.00
2018-01-06T10:59:30.675Z,41.80
2018-01-06T11:02:07.441Z,40.00
2018-01-06T11:04:35.603Z,37.90
2018-01-06T11:07:03.770Z,36.80
2018-01-06T11:09:31.958Z,36.50
2018-01-06T11:12:00.123Z,35.60
2018-01-06T11:14:28.297Z,35.60
2018-01-06T11:16:56.470Z,34.80
2018-01-06T11:19:24.648Z,34.40
2018-01-06T11:21:52.850Z,34.50
2018-01-06T11:24:21.023Z,33.80
2018-01-06T11:26:49.203Z,33.30
2018-01-06T11:29:17.393Z,33.10
2018-01-06T11:31:45.586Z,32.80
2018-01-06T11:34:13.750Z,33.10
2018-01-06T11:36:41.935Z,35.10
2018-01-06T11:39:10.118Z,35.10
2018-01-06T11:41:39.073Z,35.50
2018-01-06T11:44:07.237Z,36.00
2018-01-06T11:46:35.423Z,34.20
2018-01-06T11:49:03.594Z,35.20
2018-01-06T11:51:31.760Z,34.80
2018-01-06T11:53:59.930Z,33.90
2018-01-06T11:56:28.099Z,33.70
2018-01-06T11:58:56.276Z,32.60
2018-01-06T12:01:25.212Z,31.50
2018-01-06T12:03:53.386Z,30.20
2018-01-06T12:06:21.627Z,30.00
2018-01-06T12:08:49.798Z,27.70
2018-01-06T12:11:17.966Z,26.40
2018-01-06T12:13:46.126Z,25.60
2018-01-06T12:16:14.314Z,24.50
2018-01-06T12:18:42.520Z,23.50
2018-01-06T12:21:10.687Z,23.40
2018-01-06T12:23:38.878Z,23.00
2018-01-06T12:26:07.044Z,21.00
2018-01-06T12:28:35.220Z,20.20
2018-01-06T12:31:03.421Z,18.40
2018-01-06T12:33:32.368Z,16.20
2018-01-06T12:36:00.542Z,16.10
2018-01-06T12:38:28.751Z,15.20
2018-01-06T12:40:56.927Z,15.30
2018-01-06T12:43:25.101Z,15.50
2018-01-06T12:45:53.281Z,15.30
2018-01-06T12:48:22.223Z,15.20
2018-01-06T12:50:50.391Z,15.10
2018-01-06T12:53:18.550Z,14.90
2018-01-06T12:55:46.725Z,14.60
2018-01-06T12:58:14.916Z,13.90
2018-01-06T13:00:43.088Z,14.20
2018-01-06T13:03:11.269Z,14.40
2018-01-06T13:05:39.472Z,14.50
2018-01-06T13:08:08.422Z,13.90
2018-01-06T13:10:36.584Z,13.90
2018-01-06T13:13:05.550Z,15.70
2018-01-06T13:15:33.753Z,15.70
2018-01-06T13:18:01.922Z,18.30
2018-01-06T13:20:30.854Z,24.10
2018-01-06T13:22:59.064Z,24.00
2018-01-06T13:25:27.253Z,26.30
2018-01-06T13:27:56.214Z,26.60
2018-01-06T13:30:24.411Z,26.50
2018-01-06T13:32:52.586Z,28.60
2018-01-06T13:35:20.761Z,30.00
2018-01-06T13:37:48.940Z,32.10
2018-01-06T13:40:17.894Z,34.20
2018-01-06T13:42:46.062Z,34.20
2018-01-06T13:45:14.231Z,33.10
2018-01-06T13:47:42.445Z,31.60
2018-01-06T13:50:10.666Z,31.10
2018-01-06T13:52:38.827Z,32.00
2018-01-06T13:55:06.998Z,33.00
2018-01-06T13:57:35.960Z,35.30
2018-01-06T14:00:04.153Z,35.20
2018-01-06T14:02:33.155Z,38.50
2018-01-06T14:05:02.080Z,39.60
2018-01-06T14:07:30.281Z,39.50
2018-01-06T14:09:58.451Z,40.40
2018-01-06T14:12:26.642Z,41.50
2018-01-06T14:14:54.814Z,41.90
2018-01-06T14:17:22.985Z,42.80
2018-01-06T14:19:51.159Z,43.70
2018-01-06T14:22:19.350Z,44.70
2018-01-06T14:24:47.522Z,47.20
2018-01-06T14:27:15.708Z,46.30
2018-01-06T14:29:44.662Z,41.20
2018-01-06T14:32:12.836Z,41.10
2018-01-06T14:34:41.003Z,39.80
2018-01-06T14:37:09.167Z,39.70
2018-01-06T14:39:37.336Z,40.20
2018-01-06T14:42:05.531Z,41.30
2018-01-06T14:44:33.697Z,42.30
2018-01-06T14:47:01.870Z,43.80
2018-01-06T14:49:30.026Z,45.00
2018-01-06T14:51:58.210Z,46.10
2018-01-06T14:54:26.375Z,47.40
2018-01-06T14:56:54.546Z,48.80
2018-01-06T14:59:22.755Z,50.10
2018-01-06T15:01:50.933Z,51.10
2018-01-06T15:04:19.158Z,51.90
2018-01-06T15:06:48.110Z,53.90
2018-01-06T15:09:16.298Z,53.90
2018-01-06T15:11:44.479Z,55.60
2018-01-06T15:14:12.654Z,56.90
2018-01-06T15:16:40.823Z,57.70
2018-01-06T15:19:09.043Z,58.20
2018-01-06T15:21:37.207Z,59.50
2018-01-06T15:24:05.384Z,60.30
2018-01-06T15:26:33.570Z,61.20
2018-01-06T15:29:01.750Z,62.00
2018-01-06T15:31:29.927Z,62.70
2018-01-06T15:33:58.094Z,63.20
2018-01-06T15:36:26.289Z,63.90
2018-01-06T15:38:54.462Z,64.90
2018-01-06T15:41:22.639Z,67.30
2018-01-06T15:43:50.802Z,67.80
2018-01-06T15:46:18.992Z,68.20
2018-01-06T15:48:47.160Z,69.10
2018-01-06T15:51:15.324Z,69.00
2018-01-06T15:53:43.507Z,69.30
2018-01-06T15:56:11.672Z,69.60
2018-01-06T15:58:39.829Z,69.80
2018-01-06T16:01:08.001Z,69.80
2018-01-06T16:03:36.173Z,70.00
2018-01-06T16:06:04.335Z,70.30
2018-01-06T16:08:33.262Z,71.30
2018-01-06T16:11:01.435Z,71.10
2018-01-06T16:13:29.606Z,71.90
2018-01-06T16:15:57.770Z,72.50
2018-01-06T16:18:25.966Z,72.60
2018-01-06T16:20:54.135Z,72.90
2018-01-06T16:23:22.308Z,73.20
2018-01-06T16:25:50.457Z,73.30
2018-01-06T16:28:19.423Z,74.20
2018-01-06T16:30:47.588Z,74.10
2018-01-06T16:33:15.745Z,74.50
2018-01-06T16:35:43.937Z,75.10
2018-01-06T16:38:12.100Z,75.50
2018-01-06T16:40:40.266Z,75.40
2018-01-06T16:43:08.426Z,75.00
2018-01-06T16:45:36.662Z,75.30
2018-01-06T16:48:06.069Z,75.60
2018-01-06T16:50:35.198Z,75.90
2018-01-06T16:53:05.154Z,76.10
2018-01-06T16:55:33.671Z,76.00
2018-01-06T16:58:02.415Z,76.50
2018-01-06T17:00:33.034Z,76.30
2018-01-06T17:03:02.339Z,76.20
2018-01-06T17:05:31.653Z,76.60
2018-01-06T17:07:59.864Z,76.80
2018-01-06T17:10:28.004Z,77.10
2018-01-06T17:12:56.182Z,77.30
2018-01-06T17:15:24.341Z,78.50
2018-01-06T17:17:52.518Z,78.20
2018-01-06T17:20:20.709Z,78.20
2018-01-06T17:22:48.877Z,78.20
2018-01-06T17:25:17.056Z,78.80
2018-01-06T17:27:45.236Z,80.10
2018-01-06T17:30:13.420Z,79.30
2018-01-06T17:32:42.355Z,78.90
2018-01-06T17:35:10.543Z,78.90
2018-01-06T17:37:38.717Z,79.00
2018-01-06T17:40:06.902Z,78.60
2018-01-06T17:42:35.077Z,78.80
2018-01-06T17:45:03.269Z,79.80
2018-01-06T17:47:31.450Z,80.10
2018-01-06T17:49:59.622Z,79.70
2018-01-06T17:52:27.799Z,79.00
2018-01-06T17:54:55.974Z,79.10
2018-01-06T17:57:24.329Z,79.20
2018-01-06T17:59:52.508Z,79.40
2018-01-06T18:02:20.709Z,79.90
2018-01-06T18:04:49.675Z,79.90
2018-01-06T18:07:17.851Z,79.90
2018-01-06T18:09:46.051Z,80.10
2018-01-06T18:12:14.999Z,80.10
2018-01-06T18:14:43.946Z,80.10
2018-01-06T18:17:12.878Z,79.60
2018-01-06T18:19:41.097Z,79.50
2018-01-06T18:22:10.076Z,80.10
2018-01-06T18:24:38.254Z,80.00
2018-01-06T18:27:06.442Z,80.00
2018-01-06T18:29:34.616Z,80.20
2018-01-06T18:32:02.784Z,80.30
2018-01-06T18:34:30.968Z,80.60
2018-01-06T18:36:59.906Z,81.20
2018-01-06T18:39:28.090Z,80.80
2018-01-06T18:41:56.258Z,80.60
2018-01-06T18:44:24.437Z,80.30
2018-01-06T18:46:52.619Z,80.20
2018-01-06T18:49:20.795Z,80.50
2018-01-06T18:51:48.973Z,80.50
2018-01-06T18:54:17.155Z,80.60
2018-01-06T18:56:45.338Z,80.70
2018-01-06T18:59:13.610Z,80.80
2018-01-06T19:01:41.826Z,80.80
2018-01-06T19:04:10.007Z,81.10
2018-01-06T19:06:38.184Z,81.30
2018-01-06T19:09:06.409Z,81.40
2018-01-06T19:11:34.585Z,81.40
2018-01-06T19:14:02.758Z,81.60
2018-01-06T19:16:30.942Z,81.80
2018-01-06T19:18:59.116Z,81.80
2018-01-06T19:21:27.286Z,82.10
2018-01-06T19:23:55.459Z,82.00
2018-01-06T19:26:23.635Z,81.50
2018-01-06T19:28:51.804Z,81.40
2018-01-06T19:31:19.970Z,81.50
2018-01-06T19:33:48.150Z,81.80
2018-01-06T19:36:16.310Z,81.70
2018-01-06T19:38:44.480Z,81.60
2018-01-06T19:41:12.675Z,81.40
2018-01-06T19:43:41.449Z,81.40
2018-01-06T19:46:09.627Z,83.00
2018-01-06T19:48:37.794Z,82.50
2018-01-06T19:51:05.964Z,82.00
2018-01-06T19:53:34.131Z,82.10
2018-01-06T19:56:02.312Z,82.10
2018-01-06T19:58:30.482Z,81.60
2018-01-06T20:00:58.661Z,81.60
2018-01-06T20:03:26.839Z,81.70
2018-01-06T20:05:55.092Z,82.00
2018-01-06T20:08:23.285Z,81.90
2018-01-06T20:10:51.486Z,82.00
2018-01-06T20:13:19.644Z,82.10
2018-01-06T20:15:47.813Z,82.20
2018-01-06T20:18:15.989Z,82.20
2018-01-06T20:20:44.171Z,82.20
2018-01-06T20:23:12.374Z,82.10
2018-01-06T20:25:40.598Z,82.10
2018-01-06T20:28:08.784Z,82.80
2018-01-06T20:30:37.043Z,82.60
2018-01-06T20:33:05.229Z,82.60
2018-01-06T20:35:33.480Z,82.60
2018-01-06T20:38:01.727Z,82.50
2018-01-06T20:40:30.067Z,82.60
2018-01-06T20:42:58.379Z,82.80
2018-01-06T20:45:27.513Z,82.80
2018-01-06T20:47:55.875Z,82.70
2018-01-06T20:50:24.949Z,83.30
2018-01-06T20:52:54.112Z,83.20
2018-01-06T20:55:22.498Z,83.20
2018-01-06T20:57:50.899Z,83.20
2018-01-06T21:00:19.903Z,83.50
2018-01-06T21:02:48.232Z,83.50
2018-01-06T21:05:16.598Z,83.40
2018-01-06T21:07:44.939Z,83.40
2018-01-06T21:10:13.924Z,83.70
2018-01-06T21:12:42.171Z,83.70
2018-01-06T21:15:10.365Z,83.70
2018-01-06T21:17:38.536Z,83.70
2018-01-06T21:20:06.743Z,83.60
2018-01-06T21:22:34.915Z,83.80
2018-01-06T21:25:03.118Z,83.80
2018-01-06T21:27:31.298Z,84.80
2018-01-06T21:29:59.492Z,84.10
2018-01-06T21:32:27.655Z,84.30
2018-01-06T21:34:55.842Z,84.50
2018-01-06T21:37:24.131Z,84.50
2018-01-06T21:39:52.303Z,84.60
2018-01-06T21:42:20.508Z,84.60
2018-01-06T21:44:48.679Z,84.80
2018-01-06T21:47:16.847Z,84.70
2018-01-06T21:49:45.029Z,84.40
2018-01-06T21:52:13.216Z,84.40
2018-01-06T21:54:41.412Z,84.40
2018-01-06T21:57:10.343Z,84.70
2018-01-06T21:59:38.517Z,84.60
2018-01-06T22:02:06.680Z,84.70
2018-01-06T22:04:34.853Z,84.80
2018-01-06T22:07:03.018Z,84.90
2018-01-06T22:09:31.215Z,84.60
2018-01-06T22:11:59.406Z,85.40
2018-01-06T22:14:27.607Z,84.70
2018-01-06T22:16:55.780Z,84.80
2018-01-06T22:19:23.985Z,84.80
2018-01-06T22:21:52.149Z,85.00
2018-01-06T22:24:21.083Z,85.00
2018-01-06T22:26:49.263Z,84.90
2018-01-06T22:29:17.421Z,85.00
2018-01-06T22:31:45.583Z,85.20
2018-01-06T22:34:13.742Z,85.10
2018-01-06T22:36:42.672Z,85.10
2018-01-06T22:39:10.941Z,85.10
2018-01-06T22:41:39.099Z,85.20
2018-01-06T22:44:07.273Z,85.40
2018-01-06T22:46:35.460Z,85.30
2018-01-06T22:49:03.618Z,85.30
2018-01-06T22:51:31.796Z,85.40
2018-01-06T22:53:59.998Z,85.40
2018-01-06T22:56:29.755Z,85.70
2018-01-06T22:58:58.695Z,85.70
2018-01-06T23:01:26.858Z,86.40
2018-01-06T23:03:55.019Z,85.60
2018-01-06T23:06:23.169Z,85.70
2018-01-06T23:08:52.101Z,85.80
2018-01-06T23:11:20.274Z,85.80
2018-01-06T23:13:48.444Z,85.90
2018-01-06T23:16:16.598Z,86.10
2018-01-06T23:18:45.531Z,86.00
2018-01-06T23:21:13.790Z,85.90
2018-01-06T23:23:41.987Z,86.10
2018-01-06T23:26:10.144Z,86.00
2018-01-06T23:28:38.335Z,85.70
2018-01-06T23:31:06.495Z,85.90
2018-01-06T23:33:34.664Z,86.10
2018-01-06T23:36:02.856Z,86.20
2018-01-06T23:38:31.011Z,86.20
2018-01-06T23:40:59.170Z,87.10
2018-01-06T23:43:27.330Z,86.30
2018-01-06T23:45:56.258Z,86.40
2018-01-06T23:48:24.449Z,86.30
2018-01-06T23:50:52.606Z,87.30
2018-01-06T23:53:20.778Z,86.90
2018-01-06T23:55:48.988Z,86.90
2018-01-06T23:58:17.158Z,86.90
